sensor_id;sensor_type;location;lat;lon;timestamp;P1;durP1;ratioP1;P2;durP2;ratioP2
75169;SDS011;63749;49.186;9.222;2024-03-02T00:02:18;58.43;;;26.13;;
75169;SDS011;63749;49.186;9.222;2024-03-02T00:04:44;54.23;;;25.43;;
75169;SDS011;63749;49.186;9.222;2024-03-02T00:07:10;54.05;;;25.45;;
75169;SDS011;63749;49.186;9.222;2024-03-02T00:09:39;56.13;;;25.77;;
75169;SDS011;63749;49.186;9.222;2024-03-02T00:12:04;57.53;;;25.47;;
75169;SDS011;63749;49.186;9.222;2024-03-02T00:14:30;54.45;;;25.10;;
75169;SDS011;63749;49.186;9.222;2024-03-02T00:16:55;56.83;;;25.00;;
75169;SDS011;63749;49.186;9.222;2024-03-02T00:19:21;59.13;;;25.42;;
75169;SDS011;63749;49.186;9.222;2024-03-02T00:21:46;54.73;;;25.47;;
75169;SDS011;63749;49.186;9.222;2024-03-02T00:24:31;57.30;;;25.13;;
75169;SDS011;63749;49.186;9.222;2024-03-02T00:26:58;63.42;;;24.10;;
75169;SDS011;63749;49.186;9.222;2024-03-02T00:29:23;52.15;;;23.88;;
75169;SDS011;63749;49.186;9.222;2024-03-02T00:31:49;54.00;;;22.77;;
75169;SDS011;63749;49.186;9.222;2024-03-02T00:34:15;50.95;;;23.55;;
75169;SDS011;63749;49.186;9.222;2024-03-02T00:36:43;52.93;;;23.40;;
75169;SDS011;63749;49.186;9.222;2024-03-02T00:39:11;57.92;;;24.55;;
75169;SDS011;63749;49.186;9.222;2024-03-02T00:41:38;50.13;;;23.83;;
75169;SDS011;63749;49.186;9.222;2024-03-02T00:44:07;54.08;;;24.15;;
75169;SDS011;63749;49.186;9.222;2024-03-02T00:46:36;55.15;;;24.55;;
75169;SDS011;63749;49.186;9.222;2024-03-02T00:49:21;53.80;;;24.03;;
75169;SDS011;63749;49.186;9.222;2024-03-02T00:51:48;51.55;;;22.83;;
75169;SDS011;63749;49.186;9.222;2024-03-02T00:54:21;51.95;;;23.23;;
75169;SDS011;63749;49.186;9.222;2024-03-02T00:56:49;51.00;;;22.70;;
75169;SDS011;63749;49.186;9.222;2024-03-02T00:59:15;47.13;;;22.50;;
75169;SDS011;63749;49.186;9.222;2024-03-02T01:01:40;48.90;;;21.53;;
75169;SDS011;63749;49.186;9.222;2024-03-02T01:04:07;48.22;;;22.48;;
75169;SDS011;63749;49.186;9.222;2024-03-02T01:06:32;54.03;;;23.47;;
75169;SDS011;63749;49.186;9.222;2024-03-02T01:08:58;52.27;;;22.77;;
75169;SDS011;63749;49.186;9.222;2024-03-02T01:11:23;51.33;;;23.33;;
75169;SDS011;63749;49.186;9.222;2024-03-02T01:13:48;55.47;;;24.23;;
75169;SDS011;63749;49.186;9.222;2024-03-02T01:16:14;48.42;;;22.10;;
75169;SDS011;63749;49.186;9.222;2024-03-02T01:18:40;48.05;;;22.38;;
75169;SDS011;63749;49.186;9.222;2024-03-02T01:21:06;48.93;;;22.43;;
75169;SDS011;63749;49.186;9.222;2024-03-02T01:23:32;52.30;;;22.55;;
75169;SDS011;63749;49.186;9.222;2024-03-02T01:25:57;51.50;;;23.10;;
75169;SDS011;63749;49.186;9.222;2024-03-02T01:28:22;52.20;;;21.53;;
75169;SDS011;63749;49.186;9.222;2024-03-02T01:30:48;50.17;;;21.70;;
75169;SDS011;63749;49.186;9.222;2024-03-02T01:33:14;48.50;;;21.55;;
75169;SDS011;63749;49.186;9.222;2024-03-02T01:35:39;47.83;;;21.20;;
75169;SDS011;63749;49.186;9.222;2024-03-02T01:38:05;49.25;;;22.23;;
75169;SDS011;63749;49.186;9.222;2024-03-02T01:40:34;48.63;;;21.37;;
75169;SDS011;63749;49.186;9.222;2024-03-02T01:42:59;51.45;;;21.58;;
75169;SDS011;63749;49.186;9.222;2024-03-02T01:45:25;50.10;;;21.80;;
75169;SDS011;63749;49.186;9.222;2024-03-02T01:47:50;48.13;;;21.58;;
75169;SDS011;63749;49.186;9.222;2024-03-02T01:50:16;45.93;;;20.93;;
75169;SDS011;63749;49.186;9.222;2024-03-02T01:52:50;47.38;;;20.98;;
75169;SDS011;63749;49.186;9.222;2024-03-02T01:55:15;46.50;;;19.67;;
75169;SDS011;63749;49.186;9.222;2024-03-02T01:57:41;47.90;;;20.97;;
75169;SDS011;63749;49.186;9.222;2024-03-02T02:00:06;53.70;;;22.58;;
75169;SDS011;63749;49.186;9.222;2024-03-02T02:02:32;43.20;;;20.00;;
75169;SDS011;63749;49.186;9.222;2024-03-02T02:04:57;49.03;;;21.83;;
75169;SDS011;63749;49.186;9.222;2024-03-02T02:07:23;46.93;;;20.80;;
75169;SDS011;63749;49.186;9.222;2024-03-02T02:09:48;47.70;;;20.97;;
75169;SDS011;63749;49.186;9.222;2024-03-02T02:12:13;46.03;;;19.40;;
75169;SDS011;63749;49.186;9.222;2024-03-02T02:14:40;48.13;;;19.58;;
75169;SDS011;63749;49.186;9.222;2024-03-02T02:17:12;43.60;;;19.57;;
75169;SDS011;63749;49.186;9.222;2024-03-02T02:19:37;44.50;;;19.42;;
75169;SDS011;63749;49.186;9.222;2024-03-02T02:22:05;45.37;;;20.00;;
75169;SDS011;63749;49.186;9.222;2024-03-02T02:24:31;51.72;;;20.38;;
75169;SDS011;63749;49.186;9.222;2024-03-02T02:26:56;55.67;;;21.97;;
75169;SDS011;63749;49.186;9.222;2024-03-02T02:29:21;48.67;;;21.17;;
75169;SDS011;63749;49.186;9.222;2024-03-02T02:31:47;50.70;;;21.40;;
75169;SDS011;63749;49.186;9.222;2024-03-02T02:34:13;52.90;;;20.77;;
75169;SDS011;63749;49.186;9.222;2024-03-02T02:36:39;52.35;;;20.15;;
75169;SDS011;63749;49.186;9.222;2024-03-02T02:39:05;52.55;;;20.35;;
75169;SDS011;63749;49.186;9.222;2024-03-02T02:41:34;46.53;;;19.27;;
75169;SDS011;63749;49.186;9.222;2024-03-02T02:43:59;49.25;;;19.67;;
75169;SDS011;63749;49.186;9.222;2024-03-02T02:46:24;46.83;;;19.37;;
75169;SDS011;63749;49.186;9.222;2024-03-02T02:48:49;50.53;;;20.37;;
75169;SDS011;63749;49.186;9.222;2024-03-02T02:51:18;51.30;;;20.58;;
75169;SDS011;63749;49.186;9.222;2024-03-02T02:53:43;47.27;;;20.27;;
75169;SDS011;63749;49.186;9.222;2024-03-02T02:56:08;51.83;;;19.87;;
75169;SDS011;63749;49.186;9.222;2024-03-02T02:58:34;50.80;;;19.05;;
75169;SDS011;63749;49.186;9.222;2024-03-02T03:01:00;45.77;;;19.30;;
75169;SDS011;63749;49.186;9.222;2024-03-02T03:03:26;54.08;;;21.77;;
75169;SDS011;63749;49.186;9.222;2024-03-02T03:05:51;58.17;;;23.30;;
75169;SDS011;63749;49.186;9.222;2024-03-02T03:08:16;63.47;;;25.00;;
75169;SDS011;63749;49.186;9.222;2024-03-02T03:10:42;58.87;;;23.20;;
75169;SDS011;63749;49.186;9.222;2024-03-02T03:13:07;58.72;;;23.58;;
75169;SDS011;63749;49.186;9.222;2024-03-02T03:15:36;54.97;;;21.77;;
75169;SDS011;63749;49.186;9.222;2024-03-02T03:18:03;57.40;;;23.02;;
75169;SDS011;63749;49.186;9.222;2024-03-02T03:20:29;56.67;;;23.42;;
75169;SDS011;63749;49.186;9.222;2024-03-02T03:22:55;58.53;;;22.97;;
75169;SDS011;63749;49.186;9.222;2024-03-02T03:25:20;60.70;;;22.33;;
75169;SDS011;63749;49.186;9.222;2024-03-02T03:27:46;59.03;;;22.83;;
75169;SDS011;63749;49.186;9.222;2024-03-02T03:30:11;62.17;;;22.98;;
75169;SDS011;63749;49.186;9.222;2024-03-02T03:32:37;62.20;;;24.43;;
75169;SDS011;63749;49.186;9.222;2024-03-02T03:35:03;62.57;;;22.73;;
75169;SDS011;63749;49.186;9.222;2024-03-02T03:37:29;65.68;;;23.23;;
75169;SDS011;63749;49.186;9.222;2024-03-02T03:39:57;56.80;;;23.52;;
75169;SDS011;63749;49.186;9.222;2024-03-02T03:42:37;57.85;;;22.98;;
75169;SDS011;63749;49.186;9.222;2024-03-02T03:45:05;63.53;;;23.30;;
75169;SDS011;63749;49.186;9.222;2024-03-02T03:47:32;61.88;;;22.42;;
75169;SDS011;63749;49.186;9.222;2024-03-02T03:49:57;65.30;;;23.75;;
75169;SDS011;63749;49.186;9.222;2024-03-02T03:52:23;64.27;;;22.90;;
75169;SDS011;63749;49.186;9.222;2024-03-02T03:54:48;64.93;;;22.90;;
75169;SDS011;63749;49.186;9.222;2024-03-02T03:57:13;66.13;;;23.20;;
75169;SDS011;63749;49.186;9.222;2024-03-02T03:59:39;61.72;;;23.00;;
75169;SDS011;63749;49.186;9.222;2024-03-02T04:02:04;63.47;;;22.37;;
75169;SDS011;63749;49.186;9.222;2024-03-02T04:04:29;58.50;;;22.43;;
75169;SDS011;63749;49.186;9.222;2024-03-02T04:06:55;61.73;;;22.93;;
75169;SDS011;63749;49.186;9.222;2024-03-02T04:09:20;60.10;;;22.87;;
75169;SDS011;63749;49.186;9.222;2024-03-02T04:11:46;63.73;;;23.33;;
75169;SDS011;63749;49.186;9.222;2024-03-02T04:14:11;58.72;;;22.10;;
75169;SDS011;63749;49.186;9.222;2024-03-02T04:16:37;61.03;;;22.67;;
75169;SDS011;63749;49.186;9.222;2024-03-02T04:19:03;65.55;;;23.00;;
75169;SDS011;63749;49.186;9.222;2024-03-02T04:21:29;68.17;;;24.30;;
75169;SDS011;63749;49.186;9.222;2024-03-02T04:23:54;66.13;;;24.85;;
75169;SDS011;63749;49.186;9.222;2024-03-02T04:26:23;68.37;;;23.70;;
75169;SDS011;63749;49.186;9.222;2024-03-02T04:28:48;63.33;;;23.40;;
75169;SDS011;63749;49.186;9.222;2024-03-02T04:31:15;67.53;;;22.97;;
75169;SDS011;63749;49.186;9.222;2024-03-02T04:33:41;68.63;;;23.17;;
75169;SDS011;63749;49.186;9.222;2024-03-02T04:36:07;60.37;;;23.13;;
75169;SDS011;63749;49.186;9.222;2024-03-02T04:38:34;61.22;;;23.30;;
75169;SDS011;63749;49.186;9.222;2024-03-02T04:41:00;61.67;;;22.80;;
75169;SDS011;63749;49.186;9.222;2024-03-02T04:43:25;63.17;;;23.53;;
75169;SDS011;63749;49.186;9.222;2024-03-02T04:45:50;62.10;;;23.00;;
75169;SDS011;63749;49.186;9.222;2024-03-02T04:48:16;61.53;;;22.90;;
75169;SDS011;63749;49.186;9.222;2024-03-02T04:50:41;64.03;;;22.55;;
75169;SDS011;63749;49.186;9.222;2024-03-02T04:53:06;61.57;;;21.43;;
75169;SDS011;63749;49.186;9.222;2024-03-02T04:55:32;64.27;;;22.63;;
75169;SDS011;63749;49.186;9.222;2024-03-02T04:58:00;63.55;;;22.38;;
75169;SDS011;63749;49.186;9.222;2024-03-02T05:00:25;61.00;;;22.57;;
75169;SDS011;63749;49.186;9.222;2024-03-02T05:02:51;61.27;;;22.27;;
75169;SDS011;63749;49.186;9.222;2024-03-02T05:05:16;61.47;;;22.73;;
75169;SDS011;63749;49.186;9.222;2024-03-02T05:07:42;60.22;;;22.88;;
75169;SDS011;63749;49.186;9.222;2024-03-02T05:10:08;60.00;;;22.40;;
75169;SDS011;63749;49.186;9.222;2024-03-02T05:12:34;65.20;;;22.47;;
75169;SDS011;63749;49.186;9.222;2024-03-02T05:15:09;59.88;;;22.20;;
75169;SDS011;63749;49.186;9.222;2024-03-02T05:17:39;58.05;;;21.70;;
75169;SDS011;63749;49.186;9.222;2024-03-02T05:20:08;59.45;;;21.92;;
75169;SDS011;63749;49.186;9.222;2024-03-02T05:22:34;60.53;;;22.20;;
75169;SDS011;63749;49.186;9.222;2024-03-02T05:25:00;58.55;;;21.75;;
75169;SDS011;63749;49.186;9.222;2024-03-02T05:27:28;57.50;;;22.02;;
75169;SDS011;63749;49.186;9.222;2024-03-02T05:29:53;63.37;;;23.00;;
75169;SDS011;63749;49.186;9.222;2024-03-02T05:32:18;61.23;;;22.60;;
75169;SDS011;63749;49.186;9.222;2024-03-02T05:34:44;64.47;;;22.75;;
75169;SDS011;63749;49.186;9.222;2024-03-02T05:37:09;58.70;;;22.03;;
75169;SDS011;63749;49.186;9.222;2024-03-02T05:39:35;61.43;;;23.13;;
75169;SDS011;63749;49.186;9.222;2024-03-02T05:42:00;58.30;;;22.17;;
75169;SDS011;63749;49.186;9.222;2024-03-02T05:44:25;61.30;;;22.67;;
75169;SDS011;63749;49.186;9.222;2024-03-02T05:46:51;60.65;;;22.75;;
75169;SDS011;63749;49.186;9.222;2024-03-02T05:49:16;58.87;;;20.97;;
75169;SDS011;63749;49.186;9.222;2024-03-02T05:51:42;71.43;;;22.80;;
75169;SDS011;63749;49.186;9.222;2024-03-02T05:54:07;61.47;;;21.37;;
75169;SDS011;63749;49.186;9.222;2024-03-02T05:56:32;63.80;;;21.70;;
75169;SDS011;63749;49.186;9.222;2024-03-02T05:58:58;65.40;;;21.77;;
75169;SDS011;63749;49.186;9.222;2024-03-02T06:01:39;62.97;;;21.95;;
75169;SDS011;63749;49.186;9.222;2024-03-02T06:04:05;61.78;;;22.30;;
75169;SDS011;63749;49.186;9.222;2024-03-02T06:06:31;59.92;;;21.58;;
75169;SDS011;63749;49.186;9.222;2024-03-02T06:08:58;64.00;;;22.08;;
75169;SDS011;63749;49.186;9.222;2024-03-02T06:11:24;66.03;;;21.80;;
75169;SDS011;63749;49.186;9.222;2024-03-02T06:13:49;61.40;;;19.52;;
75169;SDS011;63749;49.186;9.222;2024-03-02T06:16:15;57.57;;;20.93;;
75169;SDS011;63749;49.186;9.222;2024-03-02T06:18:40;61.77;;;21.10;;
75169;SDS011;63749;49.186;9.222;2024-03-02T06:21:06;60.73;;;20.67;;
75169;SDS011;63749;49.186;9.222;2024-03-02T06:23:31;57.33;;;19.20;;
75169;SDS011;63749;49.186;9.222;2024-03-02T06:25:57;56.63;;;20.13;;
75169;SDS011;63749;49.186;9.222;2024-03-02T06:28:22;53.50;;;19.40;;
75169;SDS011;63749;49.186;9.222;2024-03-02T06:30:47;56.17;;;20.43;;
75169;SDS011;63749;49.186;9.222;2024-03-02T06:33:13;59.60;;;21.37;;
75169;SDS011;63749;49.186;9.222;2024-03-02T06:35:38;65.50;;;22.20;;
75169;SDS011;63749;49.186;9.222;2024-03-02T06:38:04;74.88;;;22.27;;
75169;SDS011;63749;49.186;9.222;2024-03-02T06:40:29;57.63;;;20.63;;
75169;SDS011;63749;49.186;9.222;2024-03-02T06:42:55;65.47;;;20.50;;
75169;SDS011;63749;49.186;9.222;2024-03-02T06:45:20;61.93;;;20.43;;
75169;SDS011;63749;49.186;9.222;2024-03-02T06:47:45;59.13;;;20.83;;
75169;SDS011;63749;49.186;9.222;2024-03-02T06:50:11;59.97;;;20.83;;
75169;SDS011;63749;49.186;9.222;2024-03-02T06:52:36;60.63;;;20.07;;
75169;SDS011;63749;49.186;9.222;2024-03-02T06:55:02;54.33;;;19.77;;
75169;SDS011;63749;49.186;9.222;2024-03-02T06:57:29;58.97;;;20.13;;
75169;SDS011;63749;49.186;9.222;2024-03-02T06:59:55;54.38;;;19.65;;
75169;SDS011;63749;49.186;9.222;2024-03-02T07:02:23;55.55;;;20.40;;
75169;SDS011;63749;49.186;9.222;2024-03-02T07:04:50;56.42;;;20.10;;
75169;SDS011;63749;49.186;9.222;2024-03-02T07:07:16;51.37;;;20.10;;
75169;SDS011;63749;49.186;9.222;2024-03-02T07:09:41;56.53;;;20.23;;
75169;SDS011;63749;49.186;9.222;2024-03-02T07:12:07;49.40;;;19.30;;
75169;SDS011;63749;49.186;9.222;2024-03-02T07:14:32;51.25;;;19.85;;
75169;SDS011;63749;49.186;9.222;2024-03-02T07:17:16;44.93;;;19.37;;
75169;SDS011;63749;49.186;9.222;2024-03-02T07:19:41;46.83;;;18.47;;
75169;SDS011;63749;49.186;9.222;2024-03-02T07:22:07;43.93;;;18.50;;
75169;SDS011;63749;49.186;9.222;2024-03-02T07:24:38;46.43;;;18.60;;
75169;SDS011;63749;49.186;9.222;2024-03-02T07:27:04;42.40;;;18.95;;
75169;SDS011;63749;49.186;9.222;2024-03-02T07:29:30;42.90;;;18.57;;
75169;SDS011;63749;49.186;9.222;2024-03-02T07:31:55;45.75;;;19.50;;
75169;SDS011;63749;49.186;9.222;2024-03-02T07:34:21;41.33;;;19.23;;
75169;SDS011;63749;49.186;9.222;2024-03-02T07:36:46;47.97;;;20.07;;
75169;SDS011;63749;49.186;9.222;2024-03-02T07:39:12;44.55;;;20.23;;
75169;SDS011;63749;49.186;9.222;2024-03-02T07:41:37;45.23;;;20.30;;
75169;SDS011;63749;49.186;9.222;2024-03-02T07:44:02;44.30;;;19.53;;
75169;SDS011;63749;49.186;9.222;2024-03-02T07:46:28;45.47;;;20.30;;
75169;SDS011;63749;49.186;9.222;2024-03-02T07:48:53;40.50;;;19.43;;
75169;SDS011;63749;49.186;9.222;2024-03-02T07:51:19;42.50;;;20.05;;
75169;SDS011;63749;49.186;9.222;2024-03-02T07:53:44;39.60;;;19.20;;
75169;SDS011;63749;49.186;9.222;2024-03-02T07:56:09;38.50;;;17.77;;
75169;SDS011;63749;49.186;9.222;2024-03-02T07:58:35;37.83;;;18.80;;
75169;SDS011;63749;49.186;9.222;2024-03-02T08:01:00;35.57;;;18.00;;
75169;SDS011;63749;49.186;9.222;2024-03-02T08:03:26;36.33;;;16.80;;
75169;SDS011;63749;49.186;9.222;2024-03-02T08:05:51;37.53;;;17.40;;
75169;SDS011;63749;49.186;9.222;2024-03-02T08:08:17;35.23;;;16.47;;
75169;SDS011;63749;49.186;9.222;2024-03-02T08:10:42;36.65;;;17.00;;
75169;SDS011;63749;49.186;9.222;2024-03-02T08:13:07;35.20;;;17.00;;
75169;SDS011;63749;49.186;9.222;2024-03-02T08:15:33;36.60;;;16.87;;
75169;SDS011;63749;49.186;9.222;2024-03-02T08:17:58;40.53;;;17.87;;
75169;SDS011;63749;49.186;9.222;2024-03-02T08:20:23;32.30;;;17.30;;
75169;SDS011;63749;49.186;9.222;2024-03-02T08:22:49;35.20;;;17.00;;
75169;SDS011;63749;49.186;9.222;2024-03-02T08:25:14;40.22;;;19.25;;
75169;SDS011;63749;49.186;9.222;2024-03-02T08:27:40;40.03;;;19.10;;
75169;SDS011;63749;49.186;9.222;2024-03-02T08:30:06;38.97;;;17.75;;
75169;SDS011;63749;49.186;9.222;2024-03-02T08:32:33;39.53;;;18.93;;
75169;SDS011;63749;49.186;9.222;2024-03-02T08:34:58;35.22;;;18.58;;
75169;SDS011;63749;49.186;9.222;2024-03-02T08:37:24;36.57;;;17.50;;
75169;SDS011;63749;49.186;9.222;2024-03-02T08:39:49;38.77;;;18.57;;
75169;SDS011;63749;49.186;9.222;2024-03-02T08:42:15;41.30;;;18.43;;
75169;SDS011;63749;49.186;9.222;2024-03-02T08:44:40;37.97;;;18.33;;
75169;SDS011;63749;49.186;9.222;2024-03-02T08:47:05;36.73;;;17.87;;
75169;SDS011;63749;49.186;9.222;2024-03-02T08:49:31;38.07;;;18.10;;
75169;SDS011;63749;49.186;9.222;2024-03-02T08:51:56;36.30;;;17.70;;
75169;SDS011;63749;49.186;9.222;2024-03-02T08:54:21;36.13;;;18.03;;
75169;SDS011;63749;49.186;9.222;2024-03-02T08:56:48;36.90;;;17.17;;
75169;SDS011;63749;49.186;9.222;2024-03-02T08:59:14;38.53;;;19.57;;
75169;SDS011;63749;49.186;9.222;2024-03-02T09:01:39;37.43;;;18.10;;
75169;SDS011;63749;49.186;9.222;2024-03-02T09:04:06;34.53;;;17.57;;
75169;SDS011;63749;49.186;9.222;2024-03-02T09:06:33;31.80;;;16.98;;
75169;SDS011;63749;49.186;9.222;2024-03-02T09:08:59;35.17;;;17.35;;
75169;SDS011;63749;49.186;9.222;2024-03-02T09:11:24;32.33;;;16.83;;
75169;SDS011;63749;49.186;9.222;2024-03-02T09:13:50;30.27;;;16.13;;
75169;SDS011;63749;49.186;9.222;2024-03-02T09:16:16;30.15;;;15.95;;
75169;SDS011;63749;49.186;9.222;2024-03-02T09:18:41;32.53;;;16.63;;
75169;SDS011;63749;49.186;9.222;2024-03-02T09:21:07;29.85;;;16.33;;
75169;SDS011;63749;49.186;9.222;2024-03-02T09:23:33;27.00;;;14.50;;
75169;SDS011;63749;49.186;9.222;2024-03-02T09:25:58;28.40;;;14.90;;
75169;SDS011;63749;49.186;9.222;2024-03-02T09:28:24;25.00;;;13.70;;
75169;SDS011;63749;49.186;9.222;2024-03-02T09:30:50;27.15;;;13.23;;
75169;SDS011;63749;49.186;9.222;2024-03-02T09:33:15;21.47;;;12.33;;
75169;SDS011;63749;49.186;9.222;2024-03-02T09:35:40;22.67;;;12.23;;
75169;SDS011;63749;49.186;9.222;2024-03-02T09:38:06;20.70;;;11.60;;
75169;SDS011;63749;49.186;9.222;2024-03-02T09:40:31;20.57;;;11.30;;
75169;SDS011;63749;49.186;9.222;2024-03-02T09:42:57;19.80;;;11.25;;
75169;SDS011;63749;49.186;9.222;2024-03-02T09:45:23;22.67;;;11.50;;
75169;SDS011;63749;49.186;9.222;2024-03-02T09:47:49;22.27;;;12.63;;
75169;SDS011;63749;49.186;9.222;2024-03-02T09:50:15;19.17;;;11.32;;
75169;SDS011;63749;49.186;9.222;2024-03-02T09:52:44;19.33;;;10.27;;
75169;SDS011;63749;49.186;9.222;2024-03-02T09:55:13;18.02;;;10.18;;
75169;SDS011;63749;49.186;9.222;2024-03-02T09:57:40;18.13;;;9.68;;
75169;SDS011;63749;49.186;9.222;2024-03-02T10:00:07;15.60;;;8.90;;
75169;SDS011;63749;49.186;9.222;2024-03-02T10:02:33;13.90;;;8.52;;
75169;SDS011;63749;49.186;9.222;2024-03-02T10:04:58;15.43;;;9.10;;
75169;SDS011;63749;49.186;9.222;2024-03-02T10:07:24;14.97;;;8.97;;
75169;SDS011;63749;49.186;9.222;2024-03-02T10:09:49;16.87;;;8.83;;
75169;SDS011;63749;49.186;9.222;2024-03-02T10:12:17;15.25;;;9.23;;
75169;SDS011;63749;49.186;9.222;2024-03-02T10:14:43;13.85;;;8.23;;
75169;SDS011;63749;49.186;9.222;2024-03-02T10:17:09;16.83;;;8.57;;
75169;SDS011;63749;49.186;9.222;2024-03-02T10:19:38;14.25;;;7.93;;
75169;SDS011;63749;49.186;9.222;2024-03-02T10:22:05;12.20;;;7.00;;
75169;SDS011;63749;49.186;9.222;2024-03-02T10:24:35;12.38;;;7.40;;
75169;SDS011;63749;49.186;9.222;2024-03-02T10:27:37;11.10;;;6.82;;
75169;SDS011;63749;49.186;9.222;2024-03-02T10:29:59;10.97;;;7.07;;
75169;SDS011;63749;49.186;9.222;2024-03-02T10:32:24;11.47;;;6.50;;
75169;SDS011;63749;49.186;9.222;2024-03-02T10:34:51;12.27;;;6.90;;
75169;SDS011;63749;49.186;9.222;2024-03-02T10:37:17;10.95;;;6.50;;
75169;SDS011;63749;49.186;9.222;2024-03-02T10:39:42;10.37;;;6.70;;
75169;SDS011;63749;49.186;9.222;2024-03-02T10:42:08;11.13;;;6.47;;
75169;SDS011;63749;49.186;9.222;2024-03-02T10:44:34;10.38;;;6.40;;
75169;SDS011;63749;49.186;9.222;2024-03-02T10:47:00;9.00;;;5.50;;
75169;SDS011;63749;49.186;9.222;2024-03-02T10:49:28;9.68;;;5.20;;
75169;SDS011;63749;49.186;9.222;2024-03-02T10:51:55;9.48;;;5.65;;
75169;SDS011;63749;49.186;9.222;2024-03-02T10:54:20;9.10;;;5.00;;
75169;SDS011;63749;49.186;9.222;2024-03-02T10:56:51;7.75;;;4.90;;
75169;SDS011;63749;49.186;9.222;2024-03-02T10:59:27;7.20;;;4.40;;
75169;SDS011;63749;49.186;9.222;2024-03-02T11:02:01;7.50;;;4.47;;
75169;SDS011;63749;49.186;9.222;2024-03-02T11:04:28;7.20;;;4.45;;
75169;SDS011;63749;49.186;9.222;2024-03-02T11:06:59;6.60;;;4.50;;
75169;SDS011;63749;49.186;9.222;2024-03-02T11:09:28;7.07;;;4.00;;
75169;SDS011;63749;49.186;9.222;2024-03-02T11:12:02;7.40;;;4.30;;
75169;SDS011;63749;49.186;9.222;2024-03-02T11:14:31;6.97;;;4.40;;
75169;SDS011;63749;49.186;9.222;2024-03-02T11:17:00;6.97;;;4.07;;
75169;SDS011;63749;49.186;9.222;2024-03-02T11:19:28;7.20;;;4.22;;
75169;SDS011;63749;49.186;9.222;2024-03-02T11:21:54;7.50;;;3.90;;
75169;SDS011;63749;49.186;9.222;2024-03-02T11:26:48;6.60;;;3.80;;
75169;SDS011;63749;49.186;9.222;2024-03-02T11:32:15;4.78;;;3.10;;
75169;SDS011;63749;49.186;9.222;2024-03-02T11:34:42;5.28;;;3.30;;
75169;SDS011;63749;49.186;9.222;2024-03-02T11:37:10;4.83;;;3.20;;
75169;SDS011;63749;49.186;9.222;2024-03-02T11:39:37;5.10;;;3.33;;
75169;SDS011;63749;49.186;9.222;2024-03-02T11:42:05;4.82;;;2.92;;
75169;SDS011;63749;49.186;9.222;2024-03-02T11:44:35;5.72;;;3.35;;
75169;SDS011;63749;49.186;9.222;2024-03-02T11:47:02;4.88;;;3.00;;
75169;SDS011;63749;49.186;9.222;2024-03-02T11:52:03;7.00;;;3.13;;
75169;SDS011;63749;49.186;9.222;2024-03-02T11:54:31;5.80;;;2.95;;
75169;SDS011;63749;49.186;9.222;2024-03-02T11:56:59;4.72;;;2.90;;
75169;SDS011;63749;49.186;9.222;2024-03-02T11:59:27;5.80;;;2.90;;
75169;SDS011;63749;49.186;9.222;2024-03-02T12:01:54;3.53;;;2.40;;
75169;SDS011;63749;49.186;9.222;2024-03-02T12:04:19;3.70;;;2.40;;
75169;SDS011;63749;49.186;9.222;2024-03-02T12:06:45;4.00;;;2.38;;
75169;SDS011;63749;49.186;9.222;2024-03-02T12:09:11;4.03;;;2.63;;
75169;SDS011;63749;49.186;9.222;2024-03-02T12:11:37;4.17;;;2.70;;
75169;SDS011;63749;49.186;9.222;2024-03-02T12:14:03;4.00;;;2.72;;
75169;SDS011;63749;49.186;9.222;2024-03-02T12:16:29;5.20;;;2.60;;
75169;SDS011;63749;49.186;9.222;2024-03-02T12:18:55;3.00;;;2.13;;
75169;SDS011;63749;49.186;9.222;2024-03-02T12:21:20;2.57;;;2.00;;
75169;SDS011;63749;49.186;9.222;2024-03-02T12:23:46;4.83;;;2.00;;
75169;SDS011;63749;49.186;9.222;2024-03-02T12:26:11;3.30;;;2.10;;
75169;SDS011;63749;49.186;9.222;2024-03-02T12:28:37;3.67;;;2.33;;
75169;SDS011;63749;49.186;9.222;2024-03-02T12:31:02;3.35;;;2.30;;
75169;SDS011;63749;49.186;9.222;2024-03-02T12:33:28;3.10;;;2.20;;
75169;SDS011;63749;49.186;9.222;2024-03-02T12:35:56;3.35;;;1.80;;
75169;SDS011;63749;49.186;9.222;2024-03-02T12:38:22;2.10;;;1.63;;
75169;SDS011;63749;49.186;9.222;2024-03-02T12:40:50;1.97;;;1.40;;
75169;SDS011;63749;49.186;9.222;2024-03-02T12:43:17;2.65;;;1.67;;
75169;SDS011;63749;49.186;9.222;2024-03-02T12:45:43;2.57;;;1.40;;
75169;SDS011;63749;49.186;9.222;2024-03-02T12:48:08;2.00;;;1.40;;
75169;SDS011;63749;49.186;9.222;2024-03-02T12:50:33;2.83;;;1.50;;
75169;SDS011;63749;49.186;9.222;2024-03-02T12:52:59;3.67;;;2.17;;
75169;SDS011;63749;49.186;9.222;2024-03-02T12:55:24;2.58;;;1.60;;
75169;SDS011;63749;49.186;9.222;2024-03-02T12:57:50;2.00;;;1.40;;
75169;SDS011;63749;49.186;9.222;2024-03-02T13:00:17;2.47;;;1.60;;
75169;SDS011;63749;49.186;9.222;2024-03-02T13:02:45;3.20;;;1.75;;
75169;SDS011;63749;49.186;9.222;2024-03-02T13:05:11;2.75;;;1.60;;
75169;SDS011;63749;49.186;9.222;2024-03-02T13:07:39;2.10;;;1.57;;
75169;SDS011;63749;49.186;9.222;2024-03-02T13:10:06;4.07;;;1.52;;
75169;SDS011;63749;49.186;9.222;2024-03-02T13:12:33;2.20;;;1.57;;
75169;SDS011;63749;49.186;9.222;2024-03-02T13:15:00;2.22;;;1.50;;
75169;SDS011;63749;49.186;9.222;2024-03-02T13:17:27;2.97;;;1.40;;
75169;SDS011;63749;49.186;9.222;2024-03-02T13:19:55;2.90;;;1.47;;
75169;SDS011;63749;49.186;9.222;2024-03-02T13:22:22;2.70;;;1.60;;
75169;SDS011;63749;49.186;9.222;2024-03-02T13:24:49;1.90;;;1.55;;
75169;SDS011;63749;49.186;9.222;2024-03-02T13:27:15;2.30;;;1.75;;
75169;SDS011;63749;49.186;9.222;2024-03-02T13:29:41;1.80;;;1.70;;
75169;SDS011;63749;49.186;9.222;2024-03-02T13:32:07;2.20;;;1.80;;
75169;SDS011;63749;49.186;9.222;2024-03-02T13:34:33;2.88;;;1.90;;
75169;SDS011;63749;49.186;9.222;2024-03-02T13:36:58;2.30;;;1.70;;
75169;SDS011;63749;49.186;9.222;2024-03-02T13:39:26;2.33;;;1.85;;
75169;SDS011;63749;49.186;9.222;2024-03-02T13:41:52;2.13;;;1.93;;
75169;SDS011;63749;49.186;9.222;2024-03-02T13:44:21;2.00;;;1.80;;
75169;SDS011;63749;49.186;9.222;2024-03-02T13:46:46;2.67;;;2.47;;
75169;SDS011;63749;49.186;9.222;2024-03-02T13:49:13;2.58;;;2.30;;
75169;SDS011;63749;49.186;9.222;2024-03-02T13:51:39;3.27;;;2.70;;
75169;SDS011;63749;49.186;9.222;2024-03-02T13:54:04;2.88;;;2.58;;
75169;SDS011;63749;49.186;9.222;2024-03-02T13:56:30;2.50;;;2.30;;
75169;SDS011;63749;49.186;9.222;2024-03-02T13:58:57;2.45;;;2.25;;
75169;SDS011;63749;49.186;9.222;2024-03-02T14:01:22;4.23;;;2.30;;
75169;SDS011;63749;49.186;9.222;2024-03-02T14:03:48;2.60;;;2.40;;
75169;SDS011;63749;49.186;9.222;2024-03-02T14:06:13;2.50;;;2.20;;
75169;SDS011;63749;49.186;9.222;2024-03-02T14:08:38;4.22;;;2.03;;
75169;SDS011;63749;49.186;9.222;2024-03-02T14:11:04;2.10;;;1.90;;
75169;SDS011;63749;49.186;9.222;2024-03-02T14:13:29;1.73;;;1.63;;
75169;SDS011;63749;49.186;9.222;2024-03-02T14:15:54;2.10;;;1.90;;
75169;SDS011;63749;49.186;9.222;2024-03-02T14:18:20;2.20;;;2.00;;
75169;SDS011;63749;49.186;9.222;2024-03-02T14:20:46;2.83;;;1.90;;
75169;SDS011;63749;49.186;9.222;2024-03-02T14:23:17;2.10;;;1.90;;
75169;SDS011;63749;49.186;9.222;2024-03-02T14:25:42;2.10;;;1.90;;
75169;SDS011;63749;49.186;9.222;2024-03-02T14:28:08;1.90;;;1.80;;
75169;SDS011;63749;49.186;9.222;2024-03-02T14:30:33;2.28;;;1.60;;
75169;SDS011;63749;49.186;9.222;2024-03-02T14:32:59;1.70;;;1.60;;